createdAt,value
2023-01-04T00:02:29.718Z,0.92
2023-01-04T00:05:35.920Z,0.91
2023-01-04T00:08:43.423Z,0.87
2023-01-04T00:11:49.614Z,0.89
2023-01-04T00:14:59.227Z,0.96
2023-01-04T00:18:05.901Z,0.97
2023-01-04T00:21:16.239Z,1.01
2023-01-04T00:24:22.823Z,1.01
2023-01-04T00:27:29.686Z,1.02
2023-01-04T00:30:38.416Z,1.02
2023-01-04T00:33:46.040Z,1.02
2023-01-04T00:36:52.669Z,0.93
2023-01-04T00:39:59.588Z,0.83
2023-01-04T00:43:05.661Z,0.77
2023-01-04T00:46:15.200Z,0.79
2023-01-04T00:49:21.267Z,0.83
2023-01-04T00:52:28.336Z,0.81
2023-01-04T00:55:34.524Z,0.88
2023-01-04T00:58:41.475Z,0.99
2023-01-04T01:01:51.876Z,1.20
2023-01-04T01:04:58.915Z,1.38
2023-01-04T01:08:24.810Z,1.16
2023-01-04T01:11:32.693Z,0.96
2023-01-04T01:14:38.754Z,0.68
2023-01-04T01:17:48.301Z,0.55
2023-01-04T01:20:54.336Z,0.52
2023-01-04T01:24:02.231Z,0.67
2023-01-04T01:27:08.357Z,0.62
2023-01-04T01:30:16.228Z,0.67
2023-01-04T01:33:25.039Z,0.74
2023-01-04T01:36:32.027Z,0.75
2023-01-04T01:39:38.127Z,0.79
2023-01-04T01:42:44.992Z,0.78
2023-01-04T01:45:55.668Z,0.79
2023-01-04T01:49:15.200Z,0.68
2023-01-04T01:52:30.504Z,0.54
2023-01-04T01:55:40.100Z,0.56
2023-01-04T01:58:55.924Z,0.49
2023-01-04T02:02:02.878Z,0.39
2023-01-04T02:05:13.472Z,0.38
2023-01-04T02:08:25.487Z,0.30
2023-01-04T02:11:32.611Z,0.29
2023-01-04T02:14:38.723Z,0.30
2023-01-04T02:17:58.332Z,0.28
2023-01-04T02:21:17.815Z,0.37
2023-01-04T02:24:58.038Z,0.37
2023-01-04T02:28:14.668Z,0.44
2023-01-04T02:31:40.493Z,0.46
2023-01-04T02:34:59.245Z,0.44
2023-01-04T02:38:23.875Z,0.47
2023-01-04T02:41:37.413Z,0.50
2023-01-04T02:44:53.648Z,0.50
2023-01-04T02:48:19.754Z,0.38
2023-01-04T02:51:34.041Z,0.44
2023-01-04T02:54:42.500Z,0.35
2023-01-04T02:58:08.996Z,0.34
2023-01-04T03:01:45.655Z,0.38
2023-01-04T03:05:21.956Z,0.36
2023-01-04T03:08:37.629Z,0.34
2023-01-04T03:12:04.205Z,0.37
2023-01-04T03:15:20.219Z,0.34
2023-01-04T03:18:34.279Z,0.18
2023-01-04T03:21:49.396Z,0.11
2023-01-04T03:25:10.385Z,0.04
2023-01-04T03:28:36.047Z,-0.05
2023-01-04T03:32:04.867Z,-0.05
2023-01-04T03:35:23.685Z,-0.19
2023-01-04T03:39:04.767Z,-0.16
2023-01-04T03:42:35.957Z,-0.28
2023-01-04T03:46:04.885Z,-0.28
2023-01-04T03:49:25.942Z,-0.29
2023-01-04T03:52:38.915Z,-0.30
2023-01-04T03:55:51.841Z,-0.28
2023-01-04T03:58:59.200Z,-0.33
2023-01-04T04:02:08.558Z,-0.36
2023-01-04T04:05:35.409Z,-0.39
2023-01-04T04:08:41.429Z,-0.29
2023-01-04T04:11:51.110Z,-0.31
2023-01-04T04:14:57.170Z,-0.34
2023-01-04T04:18:04.159Z,-0.37
2023-01-04T04:21:10.560Z,-0.34
2023-01-04T04:24:23.365Z,-0.33
2023-01-04T04:27:32.016Z,-0.31
2023-01-04T04:30:40.945Z,-0.39
2023-01-04T04:33:47.108Z,-0.53
2023-01-04T04:36:54.020Z,-0.56
2023-01-04T04:40:00.057Z,-0.54
2023-01-04T04:43:09.545Z,-0.41
2023-01-04T04:46:15.761Z,-0.32
2023-01-04T04:49:22.967Z,-0.27
2023-01-04T04:52:29.042Z,-0.26
2023-01-04T04:55:35.957Z,-0.25
2023-01-04T04:58:44.897Z,-0.32
2023-01-04T05:01:52.161Z,-0.35
2023-01-04T05:04:58.309Z,-0.49
2023-01-04T05:08:05.312Z,-0.42
2023-01-04T05:11:14.218Z,-0.42
2023-01-04T05:14:21.220Z,-0.38
2023-01-04T05:17:27.226Z,-0.36
2023-01-04T05:20:34.558Z,-0.38
2023-01-04T05:23:40.696Z,-0.35
2023-01-04T05:26:47.553Z,-0.36
2023-01-04T05:30:08.617Z,-0.38
2023-01-04T05:33:15.780Z,-0.35
2023-01-04T05:36:21.958Z,-0.34
2023-01-04T05:39:28.873Z,-0.30
2023-01-04T05:42:34.843Z,-0.28
2023-01-04T05:45:46.997Z,-0.24
2023-01-04T05:48:53.080Z,-0.24
2023-01-04T05:52:00.733Z,-0.18
2023-01-04T05:55:07.968Z,-0.11
2023-01-04T05:58:15.469Z,-0.11
2023-01-04T06:01:24.149Z,-0.18
2023-01-04T06:04:31.718Z,-0.26
2023-01-04T06:07:37.812Z,-0.25
2023-01-04T06:10:44.695Z,-0.33
2023-01-04T06:13:50.845Z,-0.39
2023-01-04T06:17:00.548Z,-0.42
2023-01-04T06:20:09.608Z,-0.49
2023-01-04T06:23:16.636Z,-0.49
2023-01-04T06:26:23.271Z,-0.54
2023-01-04T06:29:31.228Z,-0.61
2023-01-04T06:32:40.515Z,-0.71
2023-01-04T06:35:47.480Z,-0.60
2023-01-04T06:38:53.555Z,-0.54
2023-01-04T06:42:06.252Z,-0.45
2023-01-04T06:45:14.526Z,-0.54
2023-01-04T06:48:24.492Z,-0.64
2023-01-04T06:51:30.588Z,-0.63
2023-01-04T06:54:37.467Z,-0.79
2023-01-04T06:57:43.670Z,-0.78
2023-01-04T07:00:50.774Z,-0.86
2023-01-04T07:03:59.413Z,-0.82
2023-01-04T07:07:06.342Z,-0.80
2023-01-04T07:10:13.584Z,-0.77
2023-01-04T07:13:21.308Z,-0.79
2023-01-04T07:16:27.435Z,-0.80
2023-01-04T07:19:38.113Z,-0.81
2023-01-04T07:22:44.105Z,-0.79
2023-01-04T07:25:50.987Z,-0.81
2023-01-04T07:29:09.437Z,-0.85
2023-01-04T07:32:16.583Z,-0.95
2023-01-04T07:35:26.566Z,-1.06
2023-01-04T07:38:33.632Z,-0.98
2023-01-04T07:41:40.869Z,-0.92
2023-01-04T07:44:48.991Z,-0.93
2023-01-04T07:47:55.138Z,-0.87
2023-01-04T07:51:04.705Z,-0.72
2023-01-04T07:54:12.370Z,-0.62
2023-01-04T07:57:19.428Z,-0.52
2023-01-04T08:00:25.814Z,-0.33
2023-01-04T08:03:32.708Z,-0.21
2023-01-04T08:06:43.153Z,-0.07
2023-01-04T08:09:50.101Z,0.07
2023-01-04T08:12:56.186Z,0.26
2023-01-04T08:16:03.280Z,0.46
2023-01-04T08:19:15.248Z,0.43
2023-01-04T08:22:24.727Z,0.85
2023-01-04T08:25:30.848Z,1.13
2023-01-04T08:28:38.213Z,1.34
2023-01-04T08:31:45.033Z,1.70
2023-01-04T08:34:52.085Z,2.04
2023-01-04T08:38:28.416Z,2.15
2023-01-04T08:44:58.917Z,2.58
2023-01-04T08:48:07.190Z,2.67
2023-01-04T08:51:16.283Z,2.89
2023-01-04T08:54:25.866Z,3.28
2023-01-04T08:57:31.984Z,3.32
2023-01-04T09:00:38.971Z,3.61
2023-01-04T09:03:45.068Z,4.44
2023-01-04T09:06:51.970Z,4.31
2023-01-04T09:10:01.115Z,4.01
2023-01-04T09:13:08.492Z,4.00
2023-01-04T09:16:22.691Z,4.11
2023-01-04T09:19:29.747Z,4.42
2023-01-04T09:22:35.780Z,4.43
2023-01-04T09:25:45.785Z,3.76
2023-01-04T09:28:52.784Z,4.36
2023-01-04T09:31:59.827Z,4.10
2023-01-04T09:35:06.023Z,4.29
2023-01-04T09:38:13.015Z,4.91
2023-01-04T09:41:30.704Z,4.68
2023-01-04T09:48:25.532Z,4.76
2023-01-04T09:51:42.763Z,5.25
2023-01-04T09:55:02.789Z,5.45
2023-01-04T09:58:36.220Z,5.78
2023-01-04T10:01:54.031Z,6.09
2023-01-04T10:05:06.767Z,5.86
2023-01-04T10:08:21.300Z,5.87
2023-01-04T10:11:53.736Z,5.80
2023-01-04T10:15:32.477Z,5.50
2023-01-04T10:20:07.960Z,5.69
2023-01-04T10:22:34.852Z,5.89
2023-01-04T10:25:57.989Z,6.27
2023-01-04T10:29:50.438Z,6.12
2023-01-04T10:33:15.164Z,6.59
2023-01-04T10:36:28.032Z,6.22
2023-01-04T10:39:39.269Z,5.09
2023-01-04T10:43:02.058Z,5.00
2023-01-04T10:46:20.872Z,5.21
2023-01-04T10:49:45.743Z,5.15
2023-01-04T10:53:07.267Z,4.43
2023-01-04T10:56:27.428Z,4.64
2023-01-04T10:59:48.623Z,4.15
2023-01-04T11:03:10.754Z,4.22
2023-01-04T11:06:30.363Z,4.38
2023-01-04T11:09:46.657Z,4.19
2023-01-04T11:12:53.726Z,4.12
2023-01-04T11:16:01.700Z,3.78
2023-01-04T11:19:12.551Z,3.83
2023-01-04T11:22:31.297Z,3.95
2023-01-04T11:25:55.581Z,3.75
2023-01-04T11:29:08.939Z,3.86
2023-01-04T11:32:27.590Z,3.54
2023-01-04T11:35:46.310Z,3.69
2023-01-04T11:39:00.187Z,3.62
2023-01-04T11:42:08.777Z,3.89
2023-01-04T11:45:24.518Z,3.87
2023-01-04T11:48:41.678Z,4.09
2023-01-04T11:51:48.551Z,4.06
2023-01-04T11:54:57.443Z,3.98
2023-01-04T11:58:16.988Z,3.96
2023-01-04T12:01:27.509Z,3.91
2023-01-04T12:04:35.521Z,4.19
2023-01-04T12:07:42.337Z,4.18
2023-01-04T12:10:52.560Z,4.24
2023-01-04T12:14:00.305Z,4.10
2023-01-04T12:17:17.102Z,3.88
2023-01-04T12:20:30.135Z,3.90
2023-01-04T12:23:37.783Z,3.72
2023-01-04T12:26:47.718Z,3.72
2023-01-04T12:30:06.112Z,3.62
2023-01-04T12:33:42.579Z,3.66
2023-01-04T12:37:05.613Z,3.62
2023-01-04T12:40:57.087Z,3.70
2023-01-04T12:44:56.483Z,3.73
2023-01-04T12:48:52.549Z,3.87
2023-01-04T12:53:28.214Z,3.83
2023-01-04T12:56:12.747Z,3.92
2023-01-04T12:59:38.628Z,3.95
2023-01-04T13:02:48.383Z,4.09
2023-01-04T13:06:04.693Z,4.17
2023-01-04T13:09:25.167Z,4.30
2023-01-04T13:13:01.976Z,4.45
2023-01-04T13:16:25.663Z,4.39
2023-01-04T13:19:34.464Z,4.80
2023-01-04T13:22:57.169Z,4.77
2023-01-04T13:26:32.572Z,4.75
2023-01-04T13:29:40.095Z,4.47
2023-01-04T13:33:24.425Z,4.37
2023-01-04T13:36:15.277Z,4.17
2023-01-04T13:39:27.526Z,4.01
2023-01-04T13:42:39.367Z,3.86
2023-01-04T13:46:14.448Z,3.84
2023-01-04T13:49:21.175Z,3.89
2023-01-04T13:56:02.494Z,3.99
2023-01-04T13:59:12.269Z,4.01
2023-01-04T14:02:24.557Z,4.07
2023-01-04T14:05:31.644Z,4.14
2023-01-04T14:08:44.045Z,4.14
2023-01-04T14:15:33.988Z,4.33
2023-01-04T14:18:41.838Z,4.37
2023-01-04T14:21:49.631Z,4.36
2023-01-04T14:25:09.399Z,4.28
2023-01-04T14:28:49.555Z,4.45
2023-01-04T14:31:57.139Z,4.35
2023-01-04T14:35:17.979Z,4.37
2023-01-04T14:38:25.097Z,4.34
2023-01-04T14:41:38.041Z,4.29
2023-01-04T14:44:47.666Z,4.32
2023-01-04T14:47:53.835Z,4.34
2023-01-04T14:51:03.687Z,4.32
2023-01-04T14:54:11.059Z,4.35
2023-01-04T14:57:18.494Z,4.41
2023-01-04T15:00:27.191Z,4.40
2023-01-04T15:03:34.279Z,4.48
2023-01-04T15:06:50.375Z,4.33
2023-01-04T15:09:57.331Z,4.24
2023-01-04T15:13:04.593Z,4.10
2023-01-04T15:16:18.011Z,3.98
2023-01-04T15:19:24.159Z,4.04
2023-01-04T15:22:31.245Z,3.86
2023-01-04T15:25:37.804Z,3.86
2023-01-04T15:28:44.683Z,3.69
2023-01-04T15:31:53.460Z,3.58
2023-01-04T15:35:00.287Z,3.57
2023-01-04T15:38:06.825Z,3.55
2023-01-04T15:41:38.417Z,3.48
2023-01-04T15:44:46.095Z,3.35
2023-01-04T15:47:57.925Z,3.26
2023-01-04T15:51:07.987Z,3.19
2023-01-04T15:54:15.429Z,3.11
2023-01-04T15:57:21.499Z,2.98
2023-01-04T16:00:28.716Z,2.97
2023-01-04T16:03:38.135Z,2.91
2023-01-04T16:06:45.120Z,2.92
2023-01-04T16:09:51.251Z,2.94
2023-01-04T16:12:58.261Z,2.89
2023-01-04T16:16:04.500Z,2.88
2023-01-04T16:19:14.044Z,2.98
2023-01-04T16:22:20.247Z,2.92
2023-01-04T16:25:27.213Z,2.98
2023-01-04T16:28:33.177Z,2.98
2023-01-04T16:31:43.212Z,3.07
2023-01-04T16:34:53.881Z,2.86
2023-01-04T16:38:02.436Z,2.93
2023-01-04T16:41:10.652Z,2.92
2023-01-04T16:44:17.648Z,2.82
2023-01-04T16:47:23.972Z,2.82
2023-01-04T16:50:33.589Z,2.80
2023-01-04T16:53:40.900Z,2.85
2023-01-04T16:56:50.286Z,2.86
2023-01-04T16:59:56.373Z,2.94
2023-01-04T17:03:03.429Z,2.99
2023-01-04T17:06:16.882Z,2.91
2023-01-04T17:09:24.757Z,2.98
2023-01-04T17:12:48.362Z,3.03
2023-01-04T17:15:55.972Z,2.98
2023-01-04T17:19:02.865Z,3.01
2023-01-04T17:22:12.332Z,3.02
2023-01-04T17:25:18.410Z,3.07
2023-01-04T17:28:25.463Z,3.06
2023-01-04T17:31:35.418Z,3.12
2023-01-04T17:34:42.527Z,3.13
2023-01-04T17:37:51.155Z,3.25
2023-01-04T17:40:57.961Z,3.30
2023-01-04T17:44:06.961Z,3.38
2023-01-04T17:47:13.874Z,3.45
2023-01-04T17:50:20.736Z,3.45
2023-01-04T17:53:30.228Z,3.60
2023-01-04T17:56:37.890Z,3.67
2023-01-04T17:59:45.266Z,3.78
2023-01-04T18:02:51.307Z,3.85
2023-01-04T18:06:24.364Z,3.77
2023-01-04T18:09:28.052Z,3.85
2023-01-04T18:12:36.127Z,3.90
2023-01-04T18:15:55.003Z,3.81
2023-01-04T18:19:09.408Z,3.88
2023-01-04T18:22:15.591Z,3.86
2023-01-04T18:25:25.221Z,3.91
2023-01-04T18:28:31.591Z,3.89
2023-01-04T18:31:38.915Z,3.93
2023-01-04T18:34:45.316Z,3.97
2023-01-04T18:37:52.303Z,4.01
2023-01-04T18:41:01.014Z,4.08
2023-01-04T18:44:31.643Z,4.08
2023-01-04T18:47:34.994Z,4.15
2023-01-04T18:50:41.921Z,4.30
2023-01-04T18:53:48.090Z,4.35
2023-01-04T18:57:00.965Z,4.26
2023-01-04T19:00:08.903Z,4.39
2023-01-04T19:03:18.623Z,4.42
2023-01-04T19:06:27.121Z,4.42
2023-01-04T19:09:34.392Z,4.53
2023-01-04T19:12:43.380Z,4.52
2023-01-04T19:15:50.463Z,4.55
2023-01-04T19:18:57.799Z,4.54
2023-01-04T19:22:04.854Z,4.56
2023-01-04T19:25:11.413Z,4.61
2023-01-04T19:28:21.035Z,4.62
2023-01-04T19:31:27.054Z,4.71
2023-01-04T19:34:33.989Z,4.54
2023-01-04T19:37:39.969Z,4.72
2023-01-04T19:40:46.996Z,4.74
2023-01-04T19:43:55.600Z,4.76
2023-01-04T19:47:02.693Z,4.73
2023-01-04T19:50:10.899Z,4.74
2023-01-04T19:53:18.109Z,4.73
2023-01-04T19:56:28.583Z,4.82
2023-01-04T19:59:38.088Z,4.83
2023-01-04T20:02:44.857Z,4.78
2023-01-04T20:05:52.026Z,4.85
2023-01-04T20:08:58.990Z,4.84
2023-01-04T20:12:06.510Z,4.91
2023-01-04T20:15:16.310Z,4.92
2023-01-04T20:18:24.197Z,4.95
2023-01-04T20:21:30.449Z,5.06
2023-01-04T20:24:37.431Z,5.03
2023-01-04T20:27:43.700Z,4.98
2023-01-04T20:31:06.116Z,5.03
2023-01-04T20:34:12.475Z,5.02
2023-01-04T20:37:19.499Z,5.03
2023-01-04T20:40:25.784Z,5.10
2023-01-04T20:43:37.279Z,5.06
2023-01-04T20:46:48.240Z,5.14
2023-01-04T20:49:55.485Z,5.13
2023-01-04T20:53:01.685Z,5.09
2023-01-04T20:56:11.619Z,5.14
2023-01-04T20:59:17.979Z,5.09
2023-01-04T21:02:27.761Z,5.13
2023-01-04T21:05:37.477Z,5.03
2023-01-04T21:08:46.812Z,5.13
2023-01-04T21:11:55.745Z,5.08
2023-01-04T21:15:02.790Z,5.19
2023-01-04T21:18:12.815Z,5.08
2023-01-04T21:21:22.114Z,5.09
2023-01-04T21:24:28.257Z,5.02
2023-01-04T21:27:35.938Z,5.07
2023-01-04T21:30:43.850Z,5.09
2023-01-04T21:33:54.918Z,5.04
2023-01-04T21:37:01.060Z,5.00
2023-01-04T21:40:09.974Z,5.04
2023-01-04T21:43:21.072Z,4.99
2023-01-04T21:46:29.766Z,5.11
2023-01-04T21:49:44.048Z,5.09
2023-01-04T21:52:51.126Z,5.32
2023-01-04T21:56:02.295Z,5.20
2023-01-04T21:59:09.129Z,5.25
2023-01-04T22:02:21.033Z,5.15
2023-01-04T22:05:30.744Z,5.05
2023-01-04T22:08:38.432Z,5.06
2023-01-04T22:11:46.107Z,4.94
2023-01-04T22:14:52.127Z,4.84
2023-01-04T22:17:58.984Z,4.94
2023-01-04T22:21:11.853Z,4.87
2023-01-04T22:24:19.470Z,4.91
2023-01-04T22:27:25.530Z,4.95
2023-01-04T22:30:32.613Z,4.91
2023-01-04T22:33:40.033Z,4.86
2023-01-04T22:36:49.573Z,4.88
2023-01-04T22:39:55.568Z,4.88
2023-01-04T22:43:02.397Z,4.93
2023-01-04T22:46:13.448Z,4.92
2023-01-04T22:49:20.365Z,4.89
2023-01-04T22:52:29.076Z,4.81
2023-01-04T22:56:08.904Z,4.81
2023-01-04T22:59:02.209Z,4.77
2023-01-04T23:02:09.376Z,4.80
2023-01-04T23:05:15.637Z,4.74
2023-01-04T23:08:25.185Z,4.66
2023-01-04T23:11:35.452Z,4.64
2023-01-04T23:14:42.411Z,4.64
2023-01-04T23:17:48.611Z,4.81
2023-01-04T23:20:58.846Z,4.74
2023-01-04T23:24:08.456Z,4.82
2023-01-04T23:27:15.274Z,4.86
2023-01-04T23:30:21.794Z,4.88
2023-01-04T23:33:33.969Z,4.92
2023-01-04T23:36:45.106Z,4.99
2023-01-04T23:39:55.442Z,4.90
2023-01-04T23:43:01.705Z,4.92
2023-01-04T23:49:16.211Z,4.82
2023-01-04T23:52:23.363Z,4.88
2023-01-04T23:55:32.094Z,4.88
2023-01-04T23:58:38.944Z,4.97
